createdAt,value
2022-12-19T00:00:25.604Z,102660.82
2022-12-19T00:02:53.786Z,102658.01
2022-12-19T00:05:23.493Z,102650.84
2022-12-19T00:07:54.691Z,102652.80
2022-12-19T00:10:22.677Z,102660.82
2022-12-19T00:12:50.596Z,102650.62
2022-12-19T00:15:18.771Z,102652.12
2022-12-19T00:17:46.665Z,102651.01
2022-12-19T00:20:15.293Z,102656.63
2022-12-19T00:22:46.647Z,102653.82
2022-12-19T00:25:14.614Z,102647.18
2022-12-19T00:27:43.877Z,102641.95
2022-12-19T00:30:12.675Z,102634.86
2022-12-19T00:32:40.784Z,102648.42
2022-12-19T00:35:08.910Z,102651.01
2022-12-19T00:37:36.850Z,102643.69
2022-12-19T00:40:10.103Z,102650.62
2022-12-19T00:42:37.886Z,102643.52
2022-12-19T00:45:05.947Z,102647.34
2022-12-19T00:47:34.009Z,102641.95
2022-12-19T00:50:01.793Z,102643.91
2022-12-19T00:52:29.869Z,102638.95
2022-12-19T00:54:59.950Z,102640.45
2022-12-19T00:57:27.773Z,102619.69
2022-12-19T00:59:55.706Z,102628.12
2022-12-19T01:02:23.647Z,102628.97
2022-12-19T01:04:51.658Z,102616.25
2022-12-19T01:07:19.557Z,102627.86
2022-12-19T01:09:47.485Z,102618.97
2022-12-19T01:12:35.179Z,102624.20
2022-12-19T01:15:04.496Z,102622.04
2022-12-19T01:17:44.328Z,102627.86
2022-12-19T01:20:13.228Z,102630.67
2022-12-19T01:22:41.156Z,102619.85
2022-12-19T01:25:09.089Z,102619.85
2022-12-19T01:27:37.010Z,102629.76
2022-12-19T01:30:05.901Z,102637.93
2022-12-19T01:32:37.497Z,102620.24
2022-12-19T01:35:05.604Z,102635.34
2022-12-19T01:37:33.430Z,102625.02
2022-12-19T01:40:01.211Z,102615.70
2022-12-19T01:42:36.473Z,102624.55
2022-12-19T01:45:13.622Z,102619.55
2022-12-19T01:47:47.526Z,102633.74
2022-12-19T01:50:27.541Z,102640.22
2022-12-19T01:52:55.513Z,102631.78
2022-12-19T01:55:23.428Z,102638.91
2022-12-19T01:57:51.183Z,102638.91
2022-12-19T02:00:19.070Z,102634.98
2022-12-19T02:02:58.425Z,102644.27
2022-12-19T02:05:26.476Z,102634.53
2022-12-19T02:07:54.507Z,102632.57
2022-12-19T02:10:22.472Z,102649.21
2022-12-19T02:12:50.365Z,102625.18
2022-12-19T02:15:18.318Z,102619.95
2022-12-19T02:17:55.861Z,102615.20
2022-12-19T02:20:54.223Z,102612.39
2022-12-19T02:23:29.785Z,102621.91
2022-12-19T02:26:19.415Z,102614.75
2022-12-19T02:28:58.782Z,102624.62
2022-12-19T02:31:32.745Z,102617.92
2022-12-19T02:34:19.000Z,102614.03
2022-12-19T02:37:00.800Z,102609.71
2022-12-19T02:40:06.924Z,102601.18
2022-12-19T02:42:40.456Z,102610.37
2022-12-19T02:45:09.567Z,102603.89
2022-12-19T02:47:37.374Z,102607.55
2022-12-19T02:50:06.113Z,102608.02
2022-12-19T02:52:33.807Z,102611.22
2022-12-19T02:55:12.427Z,102620.50
2022-12-19T02:58:07.143Z,102609.02
2022-12-19T03:00:36.522Z,102608.57
2022-12-19T03:03:23.099Z,102603.80
2022-12-19T03:06:06.079Z,102609.42
2022-12-19T03:08:38.808Z,102611.61
2022-12-19T03:11:14.696Z,102613.54
2022-12-19T03:14:08.623Z,102610.11
2022-12-19T03:16:37.805Z,102614.48
2022-12-19T03:19:06.399Z,102605.85
2022-12-19T03:21:45.102Z,102609.26
2022-12-19T03:24:13.454Z,102606.84
2022-12-19T03:27:03.777Z,102607.72
2022-12-19T03:30:01.814Z,102615.89
2022-12-19T03:32:30.167Z,102621.88
2022-12-19T03:35:17.291Z,102623.38
2022-12-19T03:37:45.147Z,102630.21
2022-12-19T03:40:15.743Z,102619.62
2022-12-19T03:43:02.126Z,102627.60
2022-12-19T03:45:49.584Z,102632.14
2022-12-19T03:48:25.399Z,102632.99
2022-12-19T03:51:14.459Z,102636.39
2022-12-19T03:54:07.637Z,102638.12
2022-12-19T03:56:52.381Z,102633.35
2022-12-19T03:59:43.006Z,102627.50
2022-12-19T04:02:11.202Z,102627.27
2022-12-19T04:04:41.715Z,102620.54
2022-12-19T04:07:09.654Z,102622.04
2022-12-19T04:09:38.181Z,102620.08
2022-12-19T04:12:07.861Z,102625.02
2022-12-19T04:14:36.974Z,102625.02
2022-12-19T04:17:32.561Z,102637.73
2022-12-19T04:20:07.347Z,102636.63
2022-12-19T04:22:45.156Z,102626.03
2022-12-19T04:25:15.364Z,102622.10
2022-12-19T04:27:49.767Z,102619.75
2022-12-19T04:30:18.587Z,102621.71
2022-12-19T04:32:46.707Z,102615.63
2022-12-19T04:35:14.790Z,102624.07
2022-12-19T04:37:42.704Z,102624.27
2022-12-19T04:40:11.280Z,102628.19
2022-12-19T04:42:39.071Z,102623.41
2022-12-19T04:45:07.448Z,102615.86
2022-12-19T04:47:35.364Z,102614.36
2022-12-19T04:50:03.222Z,102610.47
2022-12-19T04:52:31.088Z,102602.65
2022-12-19T04:54:58.887Z,102599.35
2022-12-19T04:57:26.802Z,102595.00
2022-12-19T04:59:54.668Z,102595.85
2022-12-19T05:02:22.582Z,102592.19
2022-12-19T05:04:50.797Z,102592.19
2022-12-19T05:07:21.454Z,102593.66
2022-12-19T05:09:50.055Z,102581.34
2022-12-19T05:12:17.869Z,102584.51
2022-12-19T05:14:46.005Z,102591.60
2022-12-19T05:17:13.840Z,102589.67
2022-12-19T05:19:41.806Z,102587.48
2022-12-19T05:22:09.847Z,102588.07
2022-12-19T05:24:37.764Z,102585.65
2022-12-19T05:27:05.637Z,102583.46
2022-12-19T05:29:33.467Z,102580.26
2022-12-19T05:32:01.520Z,102576.59
2022-12-19T05:34:29.537Z,102574.17
2022-12-19T05:36:57.382Z,102564.89
2022-12-19T05:39:25.802Z,102567.44
2022-12-19T05:42:12.484Z,102567.44
2022-12-19T05:44:40.737Z,102575.38
2022-12-19T05:47:08.558Z,102579.93
2022-12-19T05:49:36.344Z,102574.04
2022-12-19T05:52:04.288Z,102573.81
2022-12-19T05:54:32.364Z,102575.55
2022-12-19T05:57:00.171Z,102561.48
2022-12-19T05:59:28.401Z,102564.07
2022-12-19T06:01:56.881Z,102561.26
2022-12-19T06:04:25.242Z,102564.30
2022-12-19T06:06:53.131Z,102566.45
2022-12-19T06:09:21.192Z,102568.19
2022-12-19T06:11:49.374Z,102558.19
2022-12-19T06:14:17.236Z,102554.03
2022-12-19T06:16:45.174Z,102560.27
2022-12-19T06:19:13.048Z,102561.98
2022-12-19T06:21:47.986Z,102560.51
2022-12-19T06:24:16.576Z,102565.41
2022-12-19T06:26:44.935Z,102566.88
2022-12-19T06:29:12.926Z,102557.56
2022-12-19T06:31:40.706Z,102569.95
2022-12-19T06:34:09.557Z,102564.95
2022-12-19T06:36:37.694Z,102567.50
2022-12-19T06:39:05.617Z,102575.94
2022-12-19T06:41:51.911Z,102583.52
2022-12-19T06:44:19.880Z,102576.56
2022-12-19T06:46:47.704Z,102576.07
2022-12-19T06:49:15.688Z,102568.13
2022-12-19T06:51:43.772Z,102575.22
2022-12-19T06:54:12.581Z,102572.99
2022-12-19T06:56:41.553Z,102574.73
2022-12-19T06:59:11.163Z,102566.03
2022-12-19T07:01:55.406Z,102562.11
2022-12-19T07:04:30.856Z,102559.82
2022-12-19T07:06:58.884Z,102564.46
2022-12-19T07:09:28.149Z,102563.35
2022-12-19T07:11:56.205Z,102564.20
2022-12-19T07:14:24.002Z,102565.34
2022-12-19T07:16:52.126Z,102551.41
2022-12-19T07:19:20.310Z,102559.03
2022-12-19T07:21:48.304Z,102568.84
2022-12-19T07:24:16.217Z,102565.31
2022-12-19T07:26:44.336Z,102563.71
2022-12-19T07:29:12.220Z,102552.10
2022-12-19T07:31:40.117Z,102556.65
2022-12-19T07:34:07.954Z,102550.41
2022-12-19T07:36:36.075Z,102550.27
2022-12-19T07:39:03.874Z,102557.73
2022-12-19T07:41:31.638Z,102552.59
2022-12-19T07:44:00.050Z,102545.89
2022-12-19T07:46:30.864Z,102555.18
2022-12-19T07:48:58.596Z,102554.33
2022-12-19T07:51:27.563Z,102547.59
2022-12-19T07:53:55.412Z,102550.53
2022-12-19T07:56:23.253Z,102541.48
2022-12-19T07:58:51.719Z,102546.61
2022-12-19T08:01:19.678Z,102538.80
2022-12-19T08:03:47.757Z,102541.34
2022-12-19T08:06:15.691Z,102545.14
2022-12-19T08:08:43.675Z,102558.97
2022-12-19T08:11:14.187Z,102561.03
2022-12-19T08:13:46.521Z,102567.30
2022-12-19T08:16:15.088Z,102572.08
2022-12-19T08:18:43.199Z,102579.66
2022-12-19T08:21:11.549Z,102570.48
2022-12-19T08:23:42.364Z,102569.37
2022-12-19T08:26:13.431Z,102564.37
2022-12-19T08:28:41.879Z,102578.20
2022-12-19T08:31:15.197Z,102586.23
2022-12-19T08:33:43.118Z,102587.48
2022-12-19T08:36:17.404Z,102583.06
2022-12-19T08:38:45.159Z,102580.26
2022-12-19T08:41:13.039Z,102570.70
2022-12-19T08:43:40.848Z,102571.59
2022-12-19T08:46:08.965Z,102586.23
2022-12-19T08:48:37.097Z,102584.05
2022-12-19T08:51:07.400Z,102577.09
2022-12-19T08:53:36.814Z,102575.48
2022-12-19T08:56:09.459Z,102569.10
2022-12-19T08:58:37.320Z,102559.79
2022-12-19T09:01:07.384Z,102560.54
2022-12-19T09:03:43.468Z,102558.09
2022-12-19T09:06:23.468Z,102555.50
2022-12-19T09:08:51.224Z,102562.37
2022-12-19T09:11:20.677Z,102559.88
2022-12-19T09:13:49.115Z,102556.45
2022-12-19T09:16:21.175Z,102549.98
2022-12-19T09:18:50.740Z,102541.38
2022-12-19T09:21:19.426Z,102541.64
2022-12-19T09:23:51.502Z,102543.96
2022-12-19T09:26:20.058Z,102544.55
2022-12-19T09:28:48.944Z,102556.06
2022-12-19T09:31:18.789Z,102558.74
2022-12-19T09:33:46.691Z,102560.77
2022-12-19T09:36:22.306Z,102558.09
2022-12-19T09:38:50.504Z,102561.16
2022-12-19T09:41:44.264Z,102567.30
2022-12-19T09:44:29.147Z,102573.16
2022-12-19T09:47:02.203Z,102563.25
2022-12-19T09:49:41.703Z,102573.88
2022-12-19T09:52:19.710Z,102576.07
2022-12-19T09:54:59.695Z,102565.15
2022-12-19T09:57:33.267Z,102555.21
2022-12-19T10:00:08.101Z,102534.64
2022-12-19T10:02:54.291Z,102536.34
2022-12-19T10:07:11.442Z,102533.63
2022-12-19T10:08:35.050Z,102539.35
2022-12-19T10:12:39.486Z,102549.03
2022-12-19T10:14:12.700Z,102541.94
2022-12-19T10:17:23.796Z,102543.73
2022-12-19T10:20:16.649Z,102545.14
2022-12-19T10:23:03.006Z,102550.63
2022-12-19T10:25:40.432Z,102554.13
2022-12-19T10:28:31.419Z,102546.28
2022-12-19T10:31:01.511Z,102537.03
2022-12-19T10:33:38.904Z,102533.11
2022-12-19T10:36:10.028Z,102534.80
2022-12-19T10:39:33.086Z,102529.84
2022-12-19T10:42:09.228Z,102530.23
2022-12-19T10:44:37.268Z,102520.12
2022-12-19T10:47:05.069Z,102520.98
2022-12-19T10:49:32.994Z,102525.59
2022-12-19T10:52:05.154Z,102521.63
2022-12-19T10:54:42.957Z,102518.23
2022-12-19T10:57:21.204Z,102511.36
2022-12-19T11:00:06.706Z,102497.01
2022-12-19T11:02:44.695Z,102499.85
2022-12-19T11:05:40.110Z,102507.11
2022-12-19T11:08:07.828Z,102506.00
2022-12-19T11:12:42.262Z,102500.61
2022-12-19T11:16:26.733Z,102490.24
2022-12-19T11:19:13.645Z,102491.29
2022-12-19T11:29:15.712Z,102494.30
2022-12-19T11:30:44.326Z,102499.04
2022-12-19T11:30:45.890Z,102488.18
2022-12-19T11:30:47.663Z,102498.71
2022-12-19T11:31:44.162Z,102481.25
2022-12-19T11:33:32.902Z,102473.37
2022-12-19T11:36:01.853Z,102482.95
2022-12-19T11:38:38.915Z,102475.66
2022-12-19T11:41:14.111Z,102480.56
2022-12-19T11:43:46.130Z,102481.55
2022-12-19T11:46:22.123Z,102478.18
2022-12-19T11:48:59.064Z,102475.20
2022-12-19T11:51:36.030Z,102470.13
2022-12-19T11:54:11.004Z,102465.69
2022-12-19T11:56:39.295Z,102453.16
2022-12-19T11:59:21.835Z,102451.56
2022-12-19T12:02:24.989Z,102448.39
2022-12-19T12:05:32.702Z,102454.30
2022-12-19T12:10:59.125Z,102462.84
2022-12-19T12:18:11.894Z,102448.13
2022-12-19T12:20:08.660Z,102441.30
2022-12-19T12:30:59.687Z,102441.10
2022-12-19T12:31:23.723Z,102443.84
2022-12-19T12:31:42.782Z,102437.80
2022-12-19T12:31:44.954Z,102442.99
2022-12-19T12:31:49.442Z,102440.18
2022-12-19T12:35:43.571Z,102447.21
2022-12-19T12:41:49.832Z,102435.45
2022-12-19T12:44:18.029Z,102429.82
2022-12-19T12:47:40.333Z,102429.30
2022-12-19T12:50:09.631Z,102421.38
2022-12-19T12:52:45.264Z,102421.45
2022-12-19T12:55:23.285Z,102417.30
2022-12-19T12:57:51.122Z,102421.02
2022-12-19T13:00:30.117Z,102420.47
2022-12-19T13:03:04.952Z,102437.44
2022-12-19T13:05:36.718Z,102429.82
2022-12-19T13:08:33.247Z,102434.92
2022-12-19T13:11:03.380Z,102413.18
2022-12-19T13:13:51.770Z,102409.02
2022-12-19T13:16:44.092Z,102411.90
2022-12-19T13:19:28.708Z,102410.79
2022-12-19T13:22:06.291Z,102399.25
2022-12-19T13:24:53.495Z,102395.29
2022-12-19T13:27:21.208Z,102393.27
2022-12-19T13:30:15.979Z,102398.07
2022-12-19T13:32:43.799Z,102389.30
2022-12-19T13:36:33.306Z,102393.82
2022-12-19T13:39:55.291Z,102388.98
2022-12-19T13:41:47.826Z,102388.98
2022-12-19T13:44:15.799Z,102388.98
2022-12-19T13:46:44.429Z,102386.95
2022-12-19T13:49:31.752Z,102391.50
2022-12-19T13:52:03.529Z,102388.69
2022-12-19T13:54:35.804Z,102383.55
2022-12-19T13:57:09.012Z,102389.21
2022-12-19T13:59:38.853Z,102387.48
2022-12-19T14:02:19.421Z,102391.17
2022-12-19T14:04:47.335Z,102393.40
2022-12-19T14:07:36.421Z,102398.53
2022-12-19T14:11:40.203Z,102405.88
2022-12-19T14:13:53.789Z,102393.20
2022-12-19T14:16:01.382Z,102402.59
2022-12-19T14:18:44.351Z,102402.26
2022-12-19T14:22:05.900Z,102408.77
2022-12-19T14:24:20.673Z,102408.70
2022-12-19T14:28:18.860Z,102405.82
2022-12-19T14:30:32.197Z,102404.84
2022-12-19T14:33:46.476Z,102409.13
2022-12-19T14:36:10.400Z,102420.08
2022-12-19T14:39:23.899Z,102420.34
2022-12-19T14:42:01.740Z,102414.13
2022-12-19T14:52:08.423Z,102414.13
2022-12-19T14:54:16.319Z,102412.33
2022-12-19T14:54:18.686Z,102408.08
2022-12-19T14:54:52.426Z,102420.73
2022-12-19T14:56:52.089Z,102408.83
2022-12-19T14:59:19.976Z,102419.20
2022-12-19T15:02:12.992Z,102409.02
2022-12-19T15:05:00.464Z,102413.50
2022-12-19T15:07:29.694Z,102413.77
2022-12-19T15:11:09.296Z,102400.42
2022-12-19T15:14:52.681Z,102406.02
2022-12-19T15:16:35.749Z,102418.93
2022-12-19T15:19:03.942Z,102420.30
2022-12-19T15:21:31.819Z,102426.13
2022-12-19T15:23:59.584Z,102414.52
2022-12-19T15:26:32.203Z,102413.30
2022-12-19T15:29:00.170Z,102413.83
2022-12-19T15:31:37.659Z,102413.24
2022-12-19T15:34:46.649Z,102406.67
2022-12-19T15:37:15.780Z,102414.19
2022-12-19T15:39:44.130Z,102423.70
2022-12-19T15:42:25.083Z,102423.34
2022-12-19T15:44:53.390Z,102424.00
2022-12-19T15:47:34.956Z,102429.33
2022-12-19T15:50:07.946Z,102427.01
2022-12-19T15:52:35.775Z,102428.87
2022-12-19T15:55:03.557Z,102431.98
2022-12-19T15:57:39.211Z,102430.67
2022-12-19T16:00:18.143Z,102427.53
2022-12-19T16:05:34.000Z,102441.00
2022-12-19T16:08:01.828Z,102441.00
2022-12-19T16:10:29.706Z,102430.24
2022-12-19T16:12:58.048Z,102415.47
2022-12-19T16:15:28.558Z,102416.05
2022-12-19T16:17:56.763Z,102415.98
2022-12-19T16:20:26.619Z,102413.66
2022-12-19T16:22:54.589Z,102419.81
2022-12-19T16:25:22.641Z,102410.23
2022-12-19T16:27:55.043Z,102418.02
2022-12-19T16:30:30.273Z,102414.06
2022-12-19T16:32:58.254Z,102419.98
2022-12-19T16:36:01.706Z,102413.60
2022-12-19T16:38:15.679Z,102409.45
2022-12-19T16:40:43.920Z,102418.73
2022-12-19T16:43:16.586Z,102426.62
2022-12-19T16:45:45.565Z,102422.07
2022-12-19T16:48:21.559Z,102416.09
2022-12-19T16:50:49.501Z,102405.33
2022-12-19T16:53:17.681Z,102401.38
2022-12-19T16:55:45.685Z,102400.55
2022-12-19T16:58:21.840Z,102412.06
2022-12-19T17:00:50.237Z,102406.67
2022-12-19T17:03:42.122Z,102413.18
2022-12-19T17:06:14.698Z,102399.58
2022-12-19T17:08:42.796Z,102399.58
2022-12-19T17:11:25.872Z,102410.01
2022-12-19T17:14:01.984Z,102406.34
2022-12-19T17:16:30.308Z,102411.34
2022-12-19T17:18:59.116Z,102406.21
2022-12-19T17:21:26.945Z,102412.98
2022-12-19T17:23:54.844Z,102408.96
2022-12-19T17:26:22.896Z,102403.56
2022-12-19T17:28:50.876Z,102414.59
2022-12-19T17:31:25.217Z,102413.11
2022-12-19T17:33:53.289Z,102404.05
2022-12-19T17:36:25.387Z,102402.59
2022-12-19T17:38:54.672Z,102402.59
2022-12-19T17:41:22.566Z,102405.69
2022-12-19T17:43:50.525Z,102400.88
2022-12-19T17:46:22.509Z,102404.22
2022-12-19T17:48:52.518Z,102391.27
2022-12-19T17:51:21.211Z,102384.66
2022-12-19T17:53:49.037Z,102381.00
2022-12-19T17:56:17.999Z,102381.00
2022-12-19T17:58:45.890Z,102374.14
2022-12-19T18:01:23.751Z,102377.57
2022-12-19T18:03:52.442Z,102378.06
2022-12-19T18:06:20.449Z,102393.00
2022-12-19T18:08:48.436Z,102386.27
2022-12-19T18:11:20.137Z,102382.57
2022-12-19T18:13:50.488Z,102386.53
2022-12-19T18:16:21.981Z,102381.13
2022-12-19T18:18:49.751Z,102384.21
2022-12-19T18:21:19.174Z,102379.07
2022-12-19T18:23:47.537Z,102370.02
2022-12-19T18:26:15.456Z,102360.47
2022-12-19T18:28:43.505Z,102364.13
2022-12-19T18:31:19.336Z,102368.94
2022-12-19T18:33:48.155Z,102366.95
2022-12-19T18:36:21.127Z,102363.87
2022-12-19T18:38:50.028Z,102361.05
2022-12-19T18:41:18.524Z,102366.68
2022-12-19T18:43:46.727Z,102357.66
2022-12-19T18:46:18.448Z,102366.13
2022-12-19T18:48:46.652Z,102363.02
2022-12-19T18:51:17.911Z,102359.62
2022-12-19T18:53:46.168Z,102374.79
2022-12-19T18:56:14.259Z,102374.56
2022-12-19T18:58:42.238Z,102361.32
2022-12-19T19:01:20.335Z,102367.83
2022-12-19T19:03:56.497Z,102370.02
2022-12-19T19:06:26.962Z,102371.39
2022-12-19T19:08:54.904Z,102381.76
2022-12-19T19:11:24.522Z,102374.43
2022-12-19T19:13:52.913Z,102378.09
2022-12-19T19:16:26.244Z,102376.39
2022-12-19T19:18:55.790Z,102372.73
2022-12-19T19:21:31.346Z,102371.00
2022-12-19T19:24:10.061Z,102373.26
2022-12-19T19:26:37.974Z,102364.16
2022-12-19T19:29:06.261Z,102364.69
2022-12-19T19:31:35.703Z,102357.37
2022-12-19T19:34:15.779Z,102355.89
2022-12-19T19:36:44.940Z,102357.59
2022-12-19T19:39:12.833Z,102350.01
2022-12-19T19:41:40.725Z,102355.04
2022-12-19T19:44:08.675Z,102344.87
2022-12-19T19:46:42.971Z,102344.02
2022-12-19T19:49:10.883Z,102344.87
2022-12-19T19:51:38.663Z,102350.50
2022-12-19T19:54:06.599Z,102350.01
2022-12-19T19:56:34.439Z,102339.61
2022-12-19T19:59:02.289Z,102349.42
2022-12-19T20:01:30.366Z,102345.13
2022-12-19T20:03:58.303Z,102347.95
2022-12-19T20:06:26.258Z,102338.89
2022-12-19T20:08:54.057Z,102344.29
2022-12-19T20:11:22.208Z,102344.87
2022-12-19T20:13:50.166Z,102346.09
2022-12-19T20:16:19.203Z,102344.12
2022-12-19T20:18:51.783Z,102333.73
2022-12-19T20:21:20.885Z,102328.59
2022-12-19T20:23:48.785Z,102327.97
2022-12-19T20:26:17.601Z,102314.53
2022-12-19T20:28:50.096Z,102317.34
2022-12-19T20:31:27.505Z,102313.68
2022-12-19T20:33:56.224Z,102312.83
2022-12-19T20:36:24.341Z,102313.68
2022-12-19T20:38:52.791Z,102319.05
2022-12-19T20:41:20.666Z,102331.17
2022-12-19T20:43:49.384Z,102324.44
2022-12-19T20:46:19.016Z,102323.10
2022-12-19T20:48:47.204Z,102323.66
2022-12-19T20:51:15.342Z,102322.58
2022-12-19T20:53:43.328Z,102329.90
2022-12-19T20:56:14.237Z,102326.59
2022-12-19T20:58:42.137Z,102331.73
2022-12-19T21:01:09.955Z,102331.50
2022-12-19T21:03:38.397Z,102330.36
2022-12-19T21:06:06.675Z,102324.73
2022-12-19T21:08:34.716Z,102321.43
2022-12-19T21:11:03.383Z,102321.43
2022-12-19T21:13:31.359Z,102314.44
2022-12-19T21:16:01.002Z,102320.05
2022-12-19T21:18:29.443Z,102317.84
2022-12-19T21:20:57.390Z,102315.91
2022-12-19T21:23:26.470Z,102323.46
2022-12-19T21:25:54.435Z,102324.34
2022-12-19T21:28:22.529Z,102316.98
2022-12-19T21:31:03.502Z,102318.72
2022-12-19T21:33:31.446Z,102321.27
2022-12-19T21:35:59.304Z,102315.12
2022-12-19T21:38:27.324Z,102311.46
2022-12-19T21:40:55.280Z,102316.23
2022-12-19T21:43:23.284Z,102308.65
2022-12-19T21:45:51.556Z,102309.50
2022-12-19T21:48:19.673Z,102305.84
2022-12-19T21:50:47.883Z,102311.20
2022-12-19T21:53:15.742Z,102315.74
2022-12-19T21:55:43.730Z,102316.59
2022-12-19T21:58:11.633Z,102315.25
2022-12-19T22:00:39.547Z,102313.88
2022-12-19T22:03:15.693Z,102311.30
2022-12-19T22:05:43.706Z,102311.91
2022-12-19T22:08:12.003Z,102317.54
2022-12-19T22:10:40.957Z,102318.62
2022-12-19T22:13:08.846Z,102316.10
2022-12-19T22:15:37.706Z,102313.29
2022-12-19T22:18:05.658Z,102314.11
2022-12-19T22:20:33.451Z,102315.25
2022-12-19T22:23:01.380Z,102320.61
2022-12-19T22:25:29.153Z,102316.95
2022-12-19T22:27:57.317Z,102312.67
2022-12-19T22:30:25.165Z,102315.48
2022-12-19T22:32:53.360Z,102316.82
2022-12-19T22:35:21.266Z,102314.27
2022-12-19T22:37:49.141Z,102314.89
2022-12-19T22:40:17.056Z,102307.53
2022-12-19T22:42:44.931Z,102311.46
2022-12-19T22:45:13.220Z,102306.69
2022-12-19T22:47:44.140Z,102314.01
2022-12-19T22:50:12.105Z,102307.53
2022-12-19T22:52:40.529Z,102313.16
2022-12-19T22:55:08.650Z,102316.49
2022-12-19T22:57:36.623Z,102303.25
2022-12-19T23:00:06.963Z,102299.36
2022-12-19T23:02:34.976Z,102295.70
2022-12-19T23:05:02.853Z,102296.55
2022-12-19T23:07:30.811Z,102301.68
2022-12-19T23:09:58.638Z,102284.52
2022-12-19T23:12:26.547Z,102307.05
2022-12-19T23:14:54.550Z,102292.10
2022-12-19T23:17:22.381Z,102299.20
2022-12-19T23:19:50.149Z,102299.82
2022-12-19T23:22:17.956Z,102306.03
2022-12-19T23:24:46.138Z,102302.37
2022-12-19T23:27:14.011Z,102290.24
2022-12-19T23:29:43.640Z,102301.23
2022-12-19T23:32:11.874Z,102299.52
2022-12-19T23:34:39.854Z,102300.67
2022-12-19T23:37:11.790Z,102300.15
2022-12-19T23:39:40.183Z,102299.88
2022-12-19T23:42:08.005Z,102294.52
2022-12-19T23:44:36.013Z,102300.99
2022-12-19T23:47:04.347Z,102285.23
2022-12-19T23:49:33.509Z,102283.60
2022-12-19T23:52:01.417Z,102279.41
2022-12-19T23:54:29.235Z,102282.75
2022-12-19T23:56:57.072Z,102282.13
2022-12-19T23:59:25.016Z,102278.47
